sensor_id;sensor_type;location;lat;lon;timestamp;P1;durP1;ratioP1;P2;durP2;ratioP2
15488;SDS011;7846;48.830;9.116;2023-05-16T00:01:10;13.27;;;12.07;;
15488;SDS011;7846;48.830;9.116;2023-05-16T00:03:36;13.10;;;11.80;;
15488;SDS011;7846;48.830;9.116;2023-05-16T00:06:02;14.97;;;13.47;;
15488;SDS011;7846;48.830;9.116;2023-05-16T00:08:27;15.60;;;14.10;;
15488;SDS011;7846;48.830;9.116;2023-05-16T00:10:54;15.10;;;13.70;;
15488;SDS011;7846;48.830;9.116;2023-05-16T00:13:20;16.00;;;14.40;;
15488;SDS011;7846;48.830;9.116;2023-05-16T00:15:49;16.37;;;14.77;;
15488;SDS011;7846;48.830;9.116;2023-05-16T00:18:15;16.00;;;14.50;;
15488;SDS011;7846;48.830;9.116;2023-05-16T00:20:41;17.30;;;15.63;;
15488;SDS011;7846;48.830;9.116;2023-05-16T00:23:06;17.57;;;15.87;;
15488;SDS011;7846;48.830;9.116;2023-05-16T00:25:32;18.07;;;16.27;;
15488;SDS011;7846;48.830;9.116;2023-05-16T00:27:57;19.20;;;17.30;;
15488;SDS011;7846;48.830;9.116;2023-05-16T00:30:22;19.90;;;17.90;;
15488;SDS011;7846;48.830;9.116;2023-05-16T00:32:48;20.53;;;18.43;;
15488;SDS011;7846;48.830;9.116;2023-05-16T00:35:13;19.90;;;17.90;;
15488;SDS011;7846;48.830;9.116;2023-05-16T00:37:39;21.73;;;19.47;;
15488;SDS011;7846;48.830;9.116;2023-05-16T00:40:05;22.10;;;19.90;;
15488;SDS011;7846;48.830;9.116;2023-05-16T00:42:31;23.43;;;21.00;;
15488;SDS011;7846;48.830;9.116;2023-05-16T00:44:57;22.40;;;20.20;;
15488;SDS011;7846;48.830;9.116;2023-05-16T00:47:23;21.93;;;19.70;;
15488;SDS011;7846;48.830;9.116;2023-05-16T00:49:48;22.40;;;20.30;;
15488;SDS011;7846;48.830;9.116;2023-05-16T00:52:14;22.40;;;19.93;;
15488;SDS011;7846;48.830;9.116;2023-05-16T00:54:40;21.77;;;19.67;;
15488;SDS011;7846;48.830;9.116;2023-05-16T00:57:05;23.73;;;20.30;;
15488;SDS011;7846;48.830;9.116;2023-05-16T00:59:31;21.63;;;19.20;;
15488;SDS011;7846;48.830;9.116;2023-05-16T01:01:57;21.47;;;19.43;;
15488;SDS011;7846;48.830;9.116;2023-05-16T01:04:25;22.03;;;19.77;;
15488;SDS011;7846;48.830;9.116;2023-05-16T01:06:52;21.80;;;19.50;;
15488;SDS011;7846;48.830;9.116;2023-05-16T01:09:20;23.63;;;21.13;;
15488;SDS011;7846;48.830;9.116;2023-05-16T01:14:18;25.43;;;22.77;;
15488;SDS011;7846;48.830;9.116;2023-05-16T01:17:02;25.73;;;22.53;;
15488;SDS011;7846;48.830;9.116;2023-05-16T01:22:29;27.03;;;24.33;;
15488;SDS011;7846;48.830;9.116;2023-05-16T01:28:07;28.70;;;25.70;;
15488;SDS011;7846;48.830;9.116;2023-05-16T01:30:38;29.53;;;26.33;;
15488;SDS011;7846;48.830;9.116;2023-05-16T01:33:05;29.50;;;26.40;;
15488;SDS011;7846;48.830;9.116;2023-05-16T01:35:31;31.33;;;27.40;;
15488;SDS011;7846;48.830;9.116;2023-05-16T01:38:06;31.07;;;26.93;;
15488;SDS011;7846;48.830;9.116;2023-05-16T01:40:50;32.53;;;27.67;;
15488;SDS011;7846;48.830;9.116;2023-05-16T01:43:28;30.80;;;27.40;;
15488;SDS011;7846;48.830;9.116;2023-05-16T01:45:59;31.67;;;27.77;;
15488;SDS011;7846;48.830;9.116;2023-05-16T01:48:29;36.60;;;28.83;;
15488;SDS011;7846;48.830;9.116;2023-05-16T01:51:03;32.30;;;28.30;;
15488;SDS011;7846;48.830;9.116;2023-05-16T01:53:37;35.50;;;29.00;;
15488;SDS011;7846;48.830;9.116;2023-05-16T01:56:03;33.60;;;28.67;;
15488;SDS011;7846;48.830;9.116;2023-05-16T01:58:34;32.47;;;27.90;;
15488;SDS011;7846;48.830;9.116;2023-05-16T02:01:02;35.80;;;30.27;;
15488;SDS011;7846;48.830;9.116;2023-05-16T02:03:32;35.30;;;29.43;;
15488;SDS011;7846;48.830;9.116;2023-05-16T02:05:59;37.67;;;29.87;;
15488;SDS011;7846;48.830;9.116;2023-05-16T02:08:25;34.53;;;28.90;;
15488;SDS011;7846;48.830;9.116;2023-05-16T02:10:53;40.13;;;28.50;;
15488;SDS011;7846;48.830;9.116;2023-05-16T02:13:20;37.23;;;28.73;;
15488;SDS011;7846;48.830;9.116;2023-05-16T02:15:46;32.83;;;28.17;;
15488;SDS011;7846;48.830;9.116;2023-05-16T02:18:11;38.57;;;30.23;;
15488;SDS011;7846;48.830;9.116;2023-05-16T02:20:37;37.97;;;30.23;;
15488;SDS011;7846;48.830;9.116;2023-05-16T02:23:03;39.03;;;30.47;;
15488;SDS011;7846;48.830;9.116;2023-05-16T02:25:29;36.03;;;29.77;;
15488;SDS011;7846;48.830;9.116;2023-05-16T02:27:54;36.33;;;30.27;;
15488;SDS011;7846;48.830;9.116;2023-05-16T02:30:20;38.73;;;30.53;;
15488;SDS011;7846;48.830;9.116;2023-05-16T02:32:45;37.67;;;30.67;;
15488;SDS011;7846;48.830;9.116;2023-05-16T02:35:12;38.50;;;30.90;;
15488;SDS011;7846;48.830;9.116;2023-05-16T02:37:38;44.30;;;32.43;;
15488;SDS011;7846;48.830;9.116;2023-05-16T02:40:04;40.30;;;31.17;;
15488;SDS011;7846;48.830;9.116;2023-05-16T02:42:31;40.50;;;32.30;;
15488;SDS011;7846;48.830;9.116;2023-05-16T02:44:56;45.93;;;33.27;;
15488;SDS011;7846;48.830;9.116;2023-05-16T02:47:22;40.50;;;32.23;;
15488;SDS011;7846;48.830;9.116;2023-05-16T02:49:47;43.90;;;33.17;;
15488;SDS011;7846;48.830;9.116;2023-05-16T02:52:16;43.33;;;32.87;;
15488;SDS011;7846;48.830;9.116;2023-05-16T02:54:41;45.73;;;33.07;;
15488;SDS011;7846;48.830;9.116;2023-05-16T02:57:07;44.50;;;33.57;;
15488;SDS011;7846;48.830;9.116;2023-05-16T02:59:33;45.67;;;34.90;;
15488;SDS011;7846;48.830;9.116;2023-05-16T03:02:01;46.67;;;33.97;;
15488;SDS011;7846;48.830;9.116;2023-05-16T03:04:26;48.27;;;35.93;;
15488;SDS011;7846;48.830;9.116;2023-05-16T03:06:53;48.50;;;34.67;;
15488;SDS011;7846;48.830;9.116;2023-05-16T03:09:20;46.90;;;35.07;;
15488;SDS011;7846;48.830;9.116;2023-05-16T03:11:45;48.70;;;36.17;;
15488;SDS011;7846;48.830;9.116;2023-05-16T03:14:11;52.23;;;34.80;;
15488;SDS011;7846;48.830;9.116;2023-05-16T03:16:36;51.03;;;35.93;;
15488;SDS011;7846;48.830;9.116;2023-05-16T03:19:02;48.57;;;35.27;;
15488;SDS011;7846;48.830;9.116;2023-05-16T03:21:30;51.40;;;36.47;;
15488;SDS011;7846;48.830;9.116;2023-05-16T03:23:56;52.57;;;36.23;;
15488;SDS011;7846;48.830;9.116;2023-05-16T03:26:22;52.37;;;36.90;;
15488;SDS011;7846;48.830;9.116;2023-05-16T03:28:50;53.90;;;38.43;;
15488;SDS011;7846;48.830;9.116;2023-05-16T03:31:17;52.60;;;36.93;;
15488;SDS011;7846;48.830;9.116;2023-05-16T03:33:43;53.93;;;36.53;;
15488;SDS011;7846;48.830;9.116;2023-05-16T03:36:09;54.77;;;38.67;;
15488;SDS011;7846;48.830;9.116;2023-05-16T03:38:35;53.77;;;38.53;;
15488;SDS011;7846;48.830;9.116;2023-05-16T03:41:01;56.47;;;39.03;;
15488;SDS011;7846;48.830;9.116;2023-05-16T03:43:26;54.27;;;38.90;;
15488;SDS011;7846;48.830;9.116;2023-05-16T03:45:51;55.87;;;39.57;;
15488;SDS011;7846;48.830;9.116;2023-05-16T03:48:17;54.83;;;38.13;;
15488;SDS011;7846;48.830;9.116;2023-05-16T03:50:42;56.07;;;39.80;;
15488;SDS011;7846;48.830;9.116;2023-05-16T03:53:08;59.70;;;39.30;;
15488;SDS011;7846;48.830;9.116;2023-05-16T03:55:33;58.97;;;41.17;;
15488;SDS011;7846;48.830;9.116;2023-05-16T03:57:59;56.33;;;40.00;;
15488;SDS011;7846;48.830;9.116;2023-05-16T04:00:25;59.50;;;40.37;;
15488;SDS011;7846;48.830;9.116;2023-05-16T04:02:52;56.57;;;39.37;;
15488;SDS011;7846;48.830;9.116;2023-05-16T04:05:18;58.07;;;39.97;;
15488;SDS011;7846;48.830;9.116;2023-05-16T04:07:43;57.10;;;38.53;;
15488;SDS011;7846;48.830;9.116;2023-05-16T04:10:09;59.80;;;40.53;;
15488;SDS011;7846;48.830;9.116;2023-05-16T04:12:34;59.57;;;40.07;;
15488;SDS011;7846;48.830;9.116;2023-05-16T04:15:01;60.80;;;40.03;;
15488;SDS011;7846;48.830;9.116;2023-05-16T04:17:28;60.97;;;40.30;;
15488;SDS011;7846;48.830;9.116;2023-05-16T04:19:54;59.27;;;39.37;;
15488;SDS011;7846;48.830;9.116;2023-05-16T04:22:23;61.33;;;39.90;;
15488;SDS011;7846;48.830;9.116;2023-05-16T04:24:48;55.00;;;38.73;;
15488;SDS011;7846;48.830;9.116;2023-05-16T04:27:13;59.47;;;40.63;;
15488;SDS011;7846;48.830;9.116;2023-05-16T04:29:39;55.90;;;39.57;;
15488;SDS011;7846;48.830;9.116;2023-05-16T04:32:04;54.30;;;39.07;;
15488;SDS011;7846;48.830;9.116;2023-05-16T04:34:33;57.03;;;39.43;;
15488;SDS011;7846;48.830;9.116;2023-05-16T04:37:04;58.87;;;39.43;;
15488;SDS011;7846;48.830;9.116;2023-05-16T04:39:31;55.27;;;39.43;;
15488;SDS011;7846;48.830;9.116;2023-05-16T04:41:57;57.53;;;39.93;;
15488;SDS011;7846;48.830;9.116;2023-05-16T04:44:23;53.90;;;38.87;;
15488;SDS011;7846;48.830;9.116;2023-05-16T04:46:51;55.57;;;39.43;;
15488;SDS011;7846;48.830;9.116;2023-05-16T04:49:18;55.10;;;38.30;;
15488;SDS011;7846;48.830;9.116;2023-05-16T04:51:44;54.83;;;37.97;;
15488;SDS011;7846;48.830;9.116;2023-05-16T04:54:12;56.77;;;38.83;;
15488;SDS011;7846;48.830;9.116;2023-05-16T04:56:37;60.63;;;39.77;;
15488;SDS011;7846;48.830;9.116;2023-05-16T04:59:02;56.87;;;40.70;;
15488;SDS011;7846;48.830;9.116;2023-05-16T05:01:28;58.07;;;40.57;;
15488;SDS011;7846;48.830;9.116;2023-05-16T05:03:54;56.17;;;41.30;;
15488;SDS011;7846;48.830;9.116;2023-05-16T05:06:19;53.13;;;38.80;;
15488;SDS011;7846;48.830;9.116;2023-05-16T05:08:44;54.93;;;39.67;;
15488;SDS011;7846;48.830;9.116;2023-05-16T05:11:11;55.83;;;39.23;;
15488;SDS011;7846;48.830;9.116;2023-05-16T05:13:37;54.40;;;38.83;;
15488;SDS011;7846;48.830;9.116;2023-05-16T05:16:03;55.43;;;39.60;;
15488;SDS011;7846;48.830;9.116;2023-05-16T05:18:30;50.03;;;36.27;;
15488;SDS011;7846;48.830;9.116;2023-05-16T05:20:55;50.90;;;38.60;;
15488;SDS011;7846;48.830;9.116;2023-05-16T05:23:22;55.50;;;38.27;;
15488;SDS011;7846;48.830;9.116;2023-05-16T05:25:47;51.50;;;37.40;;
15488;SDS011;7846;48.830;9.116;2023-05-16T05:28:12;54.40;;;39.23;;
15488;SDS011;7846;48.830;9.116;2023-05-16T05:30:38;55.90;;;39.33;;
15488;SDS011;7846;48.830;9.116;2023-05-16T05:33:03;52.07;;;37.23;;
15488;SDS011;7846;48.830;9.116;2023-05-16T05:35:30;53.43;;;37.07;;
15488;SDS011;7846;48.830;9.116;2023-05-16T05:37:55;49.90;;;35.57;;
15488;SDS011;7846;48.830;9.116;2023-05-16T05:40:21;51.80;;;37.27;;
15488;SDS011;7846;48.830;9.116;2023-05-16T05:42:48;43.43;;;28.60;;
15488;SDS011;7846;48.830;9.116;2023-05-16T05:45:13;52.70;;;37.50;;
15488;SDS011;7846;48.830;9.116;2023-05-16T05:47:39;49.80;;;35.13;;
15488;SDS011;7846;48.830;9.116;2023-05-16T05:50:05;54.23;;;39.00;;
15488;SDS011;7846;48.830;9.116;2023-05-16T05:52:33;54.50;;;38.13;;
15488;SDS011;7846;48.830;9.116;2023-05-16T05:54:58;56.17;;;39.50;;
15488;SDS011;7846;48.830;9.116;2023-05-16T05:57:25;57.37;;;37.10;;
15488;SDS011;7846;48.830;9.116;2023-05-16T05:59:50;53.80;;;37.17;;
15488;SDS011;7846;48.830;9.116;2023-05-16T06:02:16;51.43;;;35.83;;
15488;SDS011;7846;48.830;9.116;2023-05-16T06:04:41;50.13;;;36.70;;
15488;SDS011;7846;48.830;9.116;2023-05-16T06:07:07;46.47;;;33.47;;
15488;SDS011;7846;48.830;9.116;2023-05-16T06:09:34;45.17;;;33.67;;
15488;SDS011;7846;48.830;9.116;2023-05-16T06:11:59;46.33;;;35.83;;
15488;SDS011;7846;48.830;9.116;2023-05-16T06:14:25;43.87;;;33.30;;
15488;SDS011;7846;48.830;9.116;2023-05-16T06:16:50;41.47;;;32.50;;
15488;SDS011;7846;48.830;9.116;2023-05-16T06:19:16;39.50;;;30.47;;
15488;SDS011;7846;48.830;9.116;2023-05-16T06:21:41;44.90;;;33.00;;
15488;SDS011;7846;48.830;9.116;2023-05-16T06:24:09;42.13;;;33.50;;
15488;SDS011;7846;48.830;9.116;2023-05-16T06:26:34;41.07;;;32.60;;
15488;SDS011;7846;48.830;9.116;2023-05-16T06:29:00;36.97;;;27.60;;
15488;SDS011;7846;48.830;9.116;2023-05-16T06:31:25;36.03;;;28.93;;
15488;SDS011;7846;48.830;9.116;2023-05-16T06:33:51;33.20;;;25.33;;
15488;SDS011;7846;48.830;9.116;2023-05-16T06:36:16;40.03;;;31.27;;
15488;SDS011;7846;48.830;9.116;2023-05-16T06:38:42;39.40;;;31.93;;
15488;SDS011;7846;48.830;9.116;2023-05-16T06:41:09;37.47;;;30.77;;
15488;SDS011;7846;48.830;9.116;2023-05-16T06:43:34;38.47;;;29.83;;
15488;SDS011;7846;48.830;9.116;2023-05-16T06:46:00;35.53;;;27.70;;
15488;SDS011;7846;48.830;9.116;2023-05-16T06:48:25;31.40;;;22.87;;
15488;SDS011;7846;48.830;9.116;2023-05-16T06:50:51;29.03;;;24.73;;
15488;SDS011;7846;48.830;9.116;2023-05-16T06:53:18;36.50;;;27.73;;
15488;SDS011;7846;48.830;9.116;2023-05-16T06:55:43;36.43;;;27.53;;
15488;SDS011;7846;48.830;9.116;2023-05-16T06:58:09;32.00;;;25.30;;
15488;SDS011;7846;48.830;9.116;2023-05-16T07:00:35;33.83;;;25.67;;
15488;SDS011;7846;48.830;9.116;2023-05-16T07:03:01;30.17;;;24.20;;
15488;SDS011;7846;48.830;9.116;2023-05-16T07:05:27;21.33;;;15.30;;
15488;SDS011;7846;48.830;9.116;2023-05-16T07:07:53;25.30;;;20.50;;
15488;SDS011;7846;48.830;9.116;2023-05-16T07:10:20;21.03;;;17.63;;
15488;SDS011;7846;48.830;9.116;2023-05-16T07:12:46;22.67;;;18.57;;
15488;SDS011;7846;48.830;9.116;2023-05-16T07:15:12;21.13;;;17.90;;
15488;SDS011;7846;48.830;9.116;2023-05-16T07:17:37;27.70;;;22.37;;
15488;SDS011;7846;48.830;9.116;2023-05-16T07:20:03;28.00;;;24.80;;
15488;SDS011;7846;48.830;9.116;2023-05-16T07:22:30;31.00;;;24.63;;
15488;SDS011;7846;48.830;9.116;2023-05-16T07:24:55;24.43;;;19.67;;
15488;SDS011;7846;48.830;9.116;2023-05-16T07:27:24;27.17;;;21.67;;
15488;SDS011;7846;48.830;9.116;2023-05-16T07:29:50;20.60;;;17.73;;
15488;SDS011;7846;48.830;9.116;2023-05-16T07:32:15;18.77;;;16.77;;
15488;SDS011;7846;48.830;9.116;2023-05-16T07:34:40;21.10;;;17.30;;
15488;SDS011;7846;48.830;9.116;2023-05-16T07:37:06;23.17;;;18.10;;
15488;SDS011;7846;48.830;9.116;2023-05-16T07:39:36;20.80;;;17.93;;
15488;SDS011;7846;48.830;9.116;2023-05-16T07:42:05;19.80;;;17.70;;
15488;SDS011;7846;48.830;9.116;2023-05-16T07:44:31;21.30;;;17.03;;
15488;SDS011;7846;48.830;9.116;2023-05-16T07:46:56;20.23;;;17.47;;
15488;SDS011;7846;48.830;9.116;2023-05-16T07:49:22;18.60;;;16.70;;
15488;SDS011;7846;48.830;9.116;2023-05-16T07:51:47;17.00;;;15.20;;
15488;SDS011;7846;48.830;9.116;2023-05-16T07:54:12;16.83;;;15.17;;
15488;SDS011;7846;48.830;9.116;2023-05-16T07:56:38;16.83;;;14.63;;
15488;SDS011;7846;48.830;9.116;2023-05-16T07:59:03;15.83;;;14.33;;
15488;SDS011;7846;48.830;9.116;2023-05-16T08:01:29;15.67;;;13.43;;
15488;SDS011;7846;48.830;9.116;2023-05-16T08:03:55;16.73;;;15.03;;
15488;SDS011;7846;48.830;9.116;2023-05-16T08:06:20;16.60;;;14.90;;
15488;SDS011;7846;48.830;9.116;2023-05-16T08:08:46;18.33;;;16.17;;
15488;SDS011;7846;48.830;9.116;2023-05-16T08:11:11;19.13;;;15.77;;
15488;SDS011;7846;48.830;9.116;2023-05-16T08:13:36;18.07;;;16.17;;
15488;SDS011;7846;48.830;9.116;2023-05-16T08:16:02;18.23;;;16.37;;
15488;SDS011;7846;48.830;9.116;2023-05-16T08:18:27;17.57;;;15.73;;
15488;SDS011;7846;48.830;9.116;2023-05-16T08:20:53;18.53;;;16.23;;
15488;SDS011;7846;48.830;9.116;2023-05-16T08:23:19;17.17;;;15.47;;
15488;SDS011;7846;48.830;9.116;2023-05-16T08:25:45;14.70;;;12.60;;
15488;SDS011;7846;48.830;9.116;2023-05-16T08:28:10;15.87;;;14.27;;
15488;SDS011;7846;48.830;9.116;2023-05-16T08:30:35;13.90;;;12.43;;
15488;SDS011;7846;48.830;9.116;2023-05-16T08:33:01;16.23;;;14.70;;
15488;SDS011;7846;48.830;9.116;2023-05-16T08:35:29;16.83;;;15.17;;
15488;SDS011;7846;48.830;9.116;2023-05-16T08:37:54;16.63;;;14.93;;
15488;SDS011;7846;48.830;9.116;2023-05-16T08:40:20;18.77;;;16.97;;
15488;SDS011;7846;48.830;9.116;2023-05-16T08:42:46;21.13;;;18.93;;
15488;SDS011;7846;48.830;9.116;2023-05-16T08:45:12;18.50;;;15.97;;
15488;SDS011;7846;48.830;9.116;2023-05-16T08:47:38;21.57;;;18.57;;
15488;SDS011;7846;48.830;9.116;2023-05-16T08:50:05;21.47;;;19.23;;
15488;SDS011;7846;48.830;9.116;2023-05-16T08:52:33;21.47;;;19.17;;
15488;SDS011;7846;48.830;9.116;2023-05-16T08:55:02;22.47;;;17.93;;
15488;SDS011;7846;48.830;9.116;2023-05-16T08:57:35;25.43;;;18.30;;
15488;SDS011;7846;48.830;9.116;2023-05-16T09:00:01;24.90;;;22.17;;
15488;SDS011;7846;48.830;9.116;2023-05-16T09:02:31;19.40;;;15.17;;
15488;SDS011;7846;48.830;9.116;2023-05-16T09:04:56;24.37;;;19.03;;
15488;SDS011;7846;48.830;9.116;2023-05-16T09:07:23;25.37;;;19.23;;
15488;SDS011;7846;48.830;9.116;2023-05-16T09:09:49;24.43;;;21.53;;
15488;SDS011;7846;48.830;9.116;2023-05-16T09:12:14;27.10;;;21.67;;
15488;SDS011;7846;48.830;9.116;2023-05-16T09:14:40;27.10;;;21.43;;
15488;SDS011;7846;48.830;9.116;2023-05-16T09:17:06;24.83;;;20.37;;
15488;SDS011;7846;48.830;9.116;2023-05-16T09:19:36;24.03;;;19.20;;
15488;SDS011;7846;48.830;9.116;2023-05-16T09:22:06;25.13;;;21.20;;
15488;SDS011;7846;48.830;9.116;2023-05-16T09:24:38;26.80;;;19.33;;
15488;SDS011;7846;48.830;9.116;2023-05-16T09:27:08;26.67;;;20.60;;
15488;SDS011;7846;48.830;9.116;2023-05-16T09:29:34;28.43;;;20.83;;
15488;SDS011;7846;48.830;9.116;2023-05-16T09:32:10;25.13;;;17.57;;
15488;SDS011;7846;48.830;9.116;2023-05-16T09:34:37;28.70;;;20.80;;
15488;SDS011;7846;48.830;9.116;2023-05-16T09:37:16;22.67;;;19.90;;
15488;SDS011;7846;48.830;9.116;2023-05-16T09:39:45;25.70;;;20.13;;
15488;SDS011;7846;48.830;9.116;2023-05-16T09:42:15;24.80;;;20.83;;
15488;SDS011;7846;48.830;9.116;2023-05-16T09:44:46;21.83;;;17.73;;
15488;SDS011;7846;48.830;9.116;2023-05-16T09:47:17;19.57;;;16.87;;
15488;SDS011;7846;48.830;9.116;2023-05-16T09:49:44;23.07;;;18.33;;
15488;SDS011;7846;48.830;9.116;2023-05-16T09:52:12;21.13;;;18.67;;
15488;SDS011;7846;48.830;9.116;2023-05-16T09:54:38;17.63;;;15.77;;
15488;SDS011;7846;48.830;9.116;2023-05-16T09:57:03;20.00;;;16.63;;
15488;SDS011;7846;48.830;9.116;2023-05-16T09:59:36;19.30;;;16.47;;
15488;SDS011;7846;48.830;9.116;2023-05-16T10:02:04;19.70;;;16.40;;
15488;SDS011;7846;48.830;9.116;2023-05-16T10:04:30;20.27;;;16.67;;
15488;SDS011;7846;48.830;9.116;2023-05-16T10:06:55;18.33;;;16.13;;
15488;SDS011;7846;48.830;9.116;2023-05-16T10:09:21;17.27;;;15.47;;
15488;SDS011;7846;48.830;9.116;2023-05-16T10:11:47;17.37;;;15.13;;
15488;SDS011;7846;48.830;9.116;2023-05-16T10:14:18;16.10;;;13.53;;
15488;SDS011;7846;48.830;9.116;2023-05-16T10:16:45;16.27;;;14.57;;
15488;SDS011;7846;48.830;9.116;2023-05-16T10:19:12;17.20;;;15.43;;
15488;SDS011;7846;48.830;9.116;2023-05-16T10:21:41;17.23;;;15.40;;
15488;SDS011;7846;48.830;9.116;2023-05-16T10:24:12;20.43;;;15.33;;
15488;SDS011;7846;48.830;9.116;2023-05-16T10:26:42;18.73;;;14.87;;
15488;SDS011;7846;48.830;9.116;2023-05-16T10:29:07;16.20;;;12.97;;
15488;SDS011;7846;48.830;9.116;2023-05-16T10:31:33;14.53;;;12.90;;
15488;SDS011;7846;48.830;9.116;2023-05-16T10:33:59;20.33;;;14.77;;
15488;SDS011;7846;48.830;9.116;2023-05-16T10:36:24;17.23;;;12.23;;
15488;SDS011;7846;48.830;9.116;2023-05-16T10:38:50;15.47;;;12.23;;
15488;SDS011;7846;48.830;9.116;2023-05-16T10:41:17;21.93;;;11.57;;
15488;SDS011;7846;48.830;9.116;2023-05-16T10:43:44;16.10;;;12.50;;
15488;SDS011;7846;48.830;9.116;2023-05-16T10:46:20;15.87;;;10.57;;
15488;SDS011;7846;48.830;9.116;2023-05-16T10:48:47;24.27;;;12.97;;
15488;SDS011;7846;48.830;9.116;2023-05-16T10:54:07;17.20;;;12.40;;
15488;SDS011;7846;48.830;9.116;2023-05-16T10:56:34;17.17;;;11.83;;
15488;SDS011;7846;48.830;9.116;2023-05-16T10:59:00;15.30;;;12.77;;
15488;SDS011;7846;48.830;9.116;2023-05-16T11:01:27;14.30;;;12.77;;
15488;SDS011;7846;48.830;9.116;2023-05-16T11:09:16;10.40;;;8.47;;
15488;SDS011;7846;48.830;9.116;2023-05-16T11:12:03;14.97;;;8.83;;
15488;SDS011;7846;48.830;9.116;2023-05-16T11:17:01;10.03;;;8.57;;
15488;SDS011;7846;48.830;9.116;2023-05-16T11:19:46;10.50;;;9.00;;
15488;SDS011;7846;48.830;9.116;2023-05-16T11:24:52;14.80;;;8.93;;
15488;SDS011;7846;48.830;9.116;2023-05-16T11:28:05;8.63;;;7.73;;
15488;SDS011;7846;48.830;9.116;2023-05-16T11:32:35;7.87;;;7.07;;
15488;SDS011;7846;48.830;9.116;2023-05-16T11:35:02;7.40;;;6.17;;
15488;SDS011;7846;48.830;9.116;2023-05-16T11:37:29;6.50;;;5.90;;
15488;SDS011;7846;48.830;9.116;2023-05-16T11:39:58;6.00;;;5.40;;
15488;SDS011;7846;48.830;9.116;2023-05-16T11:42:33;6.20;;;4.80;;
15488;SDS011;7846;48.830;9.116;2023-05-16T11:45:15;6.30;;;5.70;;
15488;SDS011;7846;48.830;9.116;2023-05-16T11:47:43;6.17;;;5.13;;
15488;SDS011;7846;48.830;9.116;2023-05-16T11:50:11;6.67;;;5.97;;
15488;SDS011;7846;48.830;9.116;2023-05-16T11:52:37;6.23;;;5.63;;
15488;SDS011;7846;48.830;9.116;2023-05-16T11:55:07;6.50;;;5.33;;
15488;SDS011;7846;48.830;9.116;2023-05-16T11:57:35;6.77;;;5.70;;
15488;SDS011;7846;48.830;9.116;2023-05-16T12:00:03;9.33;;;6.10;;
15488;SDS011;7846;48.830;9.116;2023-05-16T12:02:50;6.03;;;4.70;;
15488;SDS011;7846;48.830;9.116;2023-05-16T12:05:17;6.23;;;5.67;;
15488;SDS011;7846;48.830;9.116;2023-05-16T12:07:44;5.67;;;5.17;;
15488;SDS011;7846;48.830;9.116;2023-05-16T12:10:11;5.17;;;4.77;;
15488;SDS011;7846;48.830;9.116;2023-05-16T12:12:38;4.90;;;4.50;;
15488;SDS011;7846;48.830;9.116;2023-05-16T12:15:06;4.87;;;4.47;;
15488;SDS011;7846;48.830;9.116;2023-05-16T12:17:37;4.60;;;4.20;;
15488;SDS011;7846;48.830;9.116;2023-05-16T12:20:04;4.83;;;4.43;;
15488;SDS011;7846;48.830;9.116;2023-05-16T12:22:31;4.97;;;4.57;;
15488;SDS011;7846;48.830;9.116;2023-05-16T12:24:59;4.80;;;4.40;;
15488;SDS011;7846;48.830;9.116;2023-05-16T12:27:25;5.13;;;3.60;;
15488;SDS011;7846;48.830;9.116;2023-05-16T12:29:51;3.87;;;3.57;;
15488;SDS011;7846;48.830;9.116;2023-05-16T12:32:17;3.90;;;3.60;;
15488;SDS011;7846;48.830;9.116;2023-05-16T12:34:49;3.03;;;2.83;;
15488;SDS011;7846;48.830;9.116;2023-05-16T12:37:20;3.93;;;3.53;;
15488;SDS011;7846;48.830;9.116;2023-05-16T12:39:46;3.50;;;3.20;;
15488;SDS011;7846;48.830;9.116;2023-05-16T12:42:12;3.33;;;3.03;;
15488;SDS011;7846;48.830;9.116;2023-05-16T12:44:38;4.07;;;3.73;;
15488;SDS011;7846;48.830;9.116;2023-05-16T12:47:03;9.53;;;3.90;;
15488;SDS011;7846;48.830;9.116;2023-05-16T12:49:36;5.63;;;3.30;;
15488;SDS011;7846;48.830;9.116;2023-05-16T12:52:03;7.63;;;3.80;;
15488;SDS011;7846;48.830;9.116;2023-05-16T12:54:30;5.07;;;3.37;;
15488;SDS011;7846;48.830;9.116;2023-05-16T12:56:56;3.93;;;3.60;;
15488;SDS011;7846;48.830;9.116;2023-05-16T12:59:21;4.13;;;3.30;;
15488;SDS011;7846;48.830;9.116;2023-05-16T13:01:46;5.37;;;3.00;;
15488;SDS011;7846;48.830;9.116;2023-05-16T13:04:12;5.30;;;2.90;;
15488;SDS011;7846;48.830;9.116;2023-05-16T13:06:42;3.83;;;2.10;;
15488;SDS011;7846;48.830;9.116;2023-05-16T13:09:07;3.17;;;2.83;;
15488;SDS011;7846;48.830;9.116;2023-05-16T13:11:34;2.73;;;2.30;;
15488;SDS011;7846;48.830;9.116;2023-05-16T13:14:00;6.33;;;2.37;;
15488;SDS011;7846;48.830;9.116;2023-05-16T13:16:26;3.77;;;2.67;;
15488;SDS011;7846;48.830;9.116;2023-05-16T13:18:52;6.57;;;2.87;;
15488;SDS011;7846;48.830;9.116;2023-05-16T13:21:18;5.10;;;2.17;;
15488;SDS011;7846;48.830;9.116;2023-05-16T13:23:43;3.30;;;2.13;;
15488;SDS011;7846;48.830;9.116;2023-05-16T13:26:08;3.47;;;1.93;;
15488;SDS011;7846;48.830;9.116;2023-05-16T13:28:35;3.90;;;2.20;;
15488;SDS011;7846;48.830;9.116;2023-05-16T13:31:01;3.53;;;2.00;;
15488;SDS011;7846;48.830;9.116;2023-05-16T13:33:26;3.97;;;2.10;;
15488;SDS011;7846;48.830;9.116;2023-05-16T13:35:52;3.23;;;1.90;;
15488;SDS011;7846;48.830;9.116;2023-05-16T13:38:19;5.67;;;2.00;;
15488;SDS011;7846;48.830;9.116;2023-05-16T13:40:45;3.27;;;1.60;;
15488;SDS011;7846;48.830;9.116;2023-05-16T13:43:11;3.70;;;1.90;;
15488;SDS011;7846;48.830;9.116;2023-05-16T13:45:40;6.53;;;2.10;;
15488;SDS011;7846;48.830;9.116;2023-05-16T13:48:06;5.67;;;2.40;;
15488;SDS011;7846;48.830;9.116;2023-05-16T13:50:32;7.60;;;2.83;;
15488;SDS011;7846;48.830;9.116;2023-05-16T13:52:57;5.23;;;2.57;;
15488;SDS011;7846;48.830;9.116;2023-05-16T13:55:23;9.17;;;2.77;;
15488;SDS011;7846;48.830;9.116;2023-05-16T13:57:48;2.43;;;2.17;;
15488;SDS011;7846;48.830;9.116;2023-05-16T14:00:13;4.73;;;2.17;;
15488;SDS011;7846;48.830;9.116;2023-05-16T14:02:39;4.80;;;2.60;;
15488;SDS011;7846;48.830;9.116;2023-05-16T14:05:05;3.10;;;2.30;;
15488;SDS011;7846;48.830;9.116;2023-05-16T14:07:31;4.70;;;2.23;;
15488;SDS011;7846;48.830;9.116;2023-05-16T14:09:58;6.10;;;2.10;;
15488;SDS011;7846;48.830;9.116;2023-05-16T14:12:24;1.80;;;1.67;;
15488;SDS011;7846;48.830;9.116;2023-05-16T14:14:49;3.33;;;2.20;;
15488;SDS011;7846;48.830;9.116;2023-05-16T14:17:15;1.97;;;1.87;;
15488;SDS011;7846;48.830;9.116;2023-05-16T14:19:40;2.47;;;1.80;;
15488;SDS011;7846;48.830;9.116;2023-05-16T14:22:06;3.43;;;2.00;;
15488;SDS011;7846;48.830;9.116;2023-05-16T14:24:32;2.10;;;1.90;;
15488;SDS011;7846;48.830;9.116;2023-05-16T14:26:57;3.93;;;1.80;;
15488;SDS011;7846;48.830;9.116;2023-05-16T14:29:23;5.53;;;2.03;;
15488;SDS011;7846;48.830;9.116;2023-05-16T14:31:50;2.80;;;1.43;;
15488;SDS011;7846;48.830;9.116;2023-05-16T14:34:15;2.80;;;2.27;;
15488;SDS011;7846;48.830;9.116;2023-05-16T14:36:42;3.50;;;1.50;;
15488;SDS011;7846;48.830;9.116;2023-05-16T14:39:07;2.27;;;1.37;;
15488;SDS011;7846;48.830;9.116;2023-05-16T14:41:33;1.90;;;1.27;;
15488;SDS011;7846;48.830;9.116;2023-05-16T14:43:58;3.40;;;1.23;;
15488;SDS011;7846;48.830;9.116;2023-05-16T14:46:24;4.97;;;1.60;;
15488;SDS011;7846;48.830;9.116;2023-05-16T14:48:49;2.73;;;1.20;;
15488;SDS011;7846;48.830;9.116;2023-05-16T14:51:15;2.40;;;1.13;;
15488;SDS011;7846;48.830;9.116;2023-05-16T14:53:40;2.40;;;1.43;;
15488;SDS011;7846;48.830;9.116;2023-05-16T14:56:06;4.90;;;1.30;;
15488;SDS011;7846;48.830;9.116;2023-05-16T14:58:31;2.00;;;1.33;;
15488;SDS011;7846;48.830;9.116;2023-05-16T15:00:57;4.00;;;1.40;;
15488;SDS011;7846;48.830;9.116;2023-05-16T15:03:23;5.07;;;1.30;;